sensor_id;sensor_type;location;lat;lon;timestamp;P1;P2;P0
79537;PMS5003;68989;52.032;5.152;2023-06-19T00:01:29;26;26;
79537;PMS5003;68989;52.032;5.152;2023-06-19T00:03:56;24;23;
79537;PMS5003;68989;52.032;5.152;2023-06-19T00:06:23;24;24;
79537;PMS5003;68989;52.032;5.152;2023-06-19T00:08:49;23;23;
79537;PMS5003;68989;52.032;5.152;2023-06-19T00:11:17;27;24;
79537;PMS5003;68989;52.032;5.152;2023-06-19T00:13:44;24;23;
79537;PMS5003;68989;52.032;5.152;2023-06-19T00:16:11;25;23;
79537;PMS5003;68989;52.032;5.152;2023-06-19T00:18:38;25;24;
79537;PMS5003;68989;52.032;5.152;2023-06-19T00:21:04;22;22;
79537;PMS5003;68989;52.032;5.152;2023-06-19T00:23:34;26;25;
79537;PMS5003;68989;52.032;5.152;2023-06-19T00:26:01;27;27;
79537;PMS5003;68989;52.032;5.152;2023-06-19T00:28:28;25;21;
79537;PMS5003;68989;52.032;5.152;2023-06-19T00:30:56;28;24;
79537;PMS5003;68989;52.032;5.152;2023-06-19T00:33:23;23;23;
79537;PMS5003;68989;52.032;5.152;2023-06-19T00:35:51;23;23;
79537;PMS5003;68989;52.032;5.152;2023-06-19T00:38:18;24;23;
79537;PMS5003;68989;52.032;5.152;2023-06-19T00:40:45;24;22;
79537;PMS5003;68989;52.032;5.152;2023-06-19T00:43:12;16;16;
79537;PMS5003;68989;52.032;5.152;2023-06-19T00:45:39;20;20;
79537;PMS5003;68989;52.032;5.152;2023-06-19T00:48:05;15;14;
79537;PMS5003;68989;52.032;5.152;2023-06-19T00:50:33;17;16;
79537;PMS5003;68989;52.032;5.152;2023-06-19T00:53:00;18;16;
79537;PMS5003;68989;52.032;5.152;2023-06-19T00:55:29;13;13;
79537;PMS5003;68989;52.032;5.152;2023-06-19T00:57:58;12;12;
79537;PMS5003;68989;52.032;5.152;2023-06-19T01:01:46;9;9;
79537;PMS5003;68989;52.032;5.152;2023-06-19T01:04:14;8;8;
79537;PMS5003;68989;52.032;5.152;2023-06-19T01:06:42;8;8;
79537;PMS5003;68989;52.032;5.152;2023-06-19T01:09:16;8;8;
79537;PMS5003;68989;52.032;5.152;2023-06-19T01:11:46;8;8;
79537;PMS5003;68989;52.032;5.152;2023-06-19T01:14:18;8;7;
79537;PMS5003;68989;52.032;5.152;2023-06-19T01:16:47;8;7;
79537;PMS5003;68989;52.032;5.152;2023-06-19T01:19:17;6;6;
79537;PMS5003;68989;52.032;5.152;2023-06-19T01:21:45;6;6;
79537;PMS5003;68989;52.032;5.152;2023-06-19T01:24:13;6;6;
79537;PMS5003;68989;52.032;5.152;2023-06-19T01:26:40;4;4;
79537;PMS5003;68989;52.032;5.152;2023-06-19T01:29:08;6;5;
79537;PMS5003;68989;52.032;5.152;2023-06-19T01:31:37;4;4;
79537;PMS5003;68989;52.032;5.152;2023-06-19T01:34:08;4;4;
79537;PMS5003;68989;52.032;5.152;2023-06-19T01:36:38;5;5;
79537;PMS5003;68989;52.032;5.152;2023-06-19T01:39:05;5;4;
79537;PMS5003;68989;52.032;5.152;2023-06-19T01:41:34;7;7;
79537;PMS5003;68989;52.032;5.152;2023-06-19T01:44:03;5;5;
79537;PMS5003;68989;52.032;5.152;2023-06-19T01:46:30;4;4;
79537;PMS5003;68989;52.032;5.152;2023-06-19T01:48:57;4;4;
79537;PMS5003;68989;52.032;5.152;2023-06-19T01:51:24;5;5;
79537;PMS5003;68989;52.032;5.152;2023-06-19T01:53:51;5;5;
79537;PMS5003;68989;52.032;5.152;2023-06-19T01:56:18;5;5;
79537;PMS5003;68989;52.032;5.152;2023-06-19T01:58:44;6;5;
79537;PMS5003;68989;52.032;5.152;2023-06-19T02:01:11;5;4;
79537;PMS5003;68989;52.032;5.152;2023-06-19T02:03:38;4;4;
79537;PMS5003;68989;52.032;5.152;2023-06-19T02:06:05;4;4;
79537;PMS5003;68989;52.032;5.152;2023-06-19T02:08:31;6;6;
79537;PMS5003;68989;52.032;5.152;2023-06-19T02:10:58;6;6;
79537;PMS5003;68989;52.032;5.152;2023-06-19T02:13:25;5;5;
79537;PMS5003;68989;52.032;5.152;2023-06-19T02:15:52;8;6;
79537;PMS5003;68989;52.032;5.152;2023-06-19T02:18:18;6;6;
79537;PMS5003;68989;52.032;5.152;2023-06-19T02:20:45;7;5;
79537;PMS5003;68989;52.032;5.152;2023-06-19T02:23:12;4;4;
79537;PMS5003;68989;52.032;5.152;2023-06-19T02:25:39;5;5;
79537;PMS5003;68989;52.032;5.152;2023-06-19T02:28:05;4;4;
79537;PMS5003;68989;52.032;5.152;2023-06-19T02:30:32;5;5;
79537;PMS5003;68989;52.032;5.152;2023-06-19T02:32:59;4;4;
79537;PMS5003;68989;52.032;5.152;2023-06-19T02:35:26;7;7;
79537;PMS5003;68989;52.032;5.152;2023-06-19T02:37:53;4;4;
79537;PMS5003;68989;52.032;5.152;2023-06-19T02:40:20;6;4;
79537;PMS5003;68989;52.032;5.152;2023-06-19T02:42:48;6;6;
79537;PMS5003;68989;52.032;5.152;2023-06-19T02:45:15;5;5;
79537;PMS5003;68989;52.032;5.152;2023-06-19T02:47:42;6;6;
79537;PMS5003;68989;52.032;5.152;2023-06-19T02:50:09;7;7;
79537;PMS5003;68989;52.032;5.152;2023-06-19T02:52:36;5;5;
79537;PMS5003;68989;52.032;5.152;2023-06-19T02:55:03;7;6;
79537;PMS5003;68989;52.032;5.152;2023-06-19T02:57:30;7;7;
79537;PMS5003;68989;52.032;5.152;2023-06-19T02:59:57;7;6;
79537;PMS5003;68989;52.032;5.152;2023-06-19T03:02:25;6;6;
79537;PMS5003;68989;52.032;5.152;2023-06-19T03:04:52;7;7;
79537;PMS5003;68989;52.032;5.152;2023-06-19T03:07:19;7;6;
79537;PMS5003;68989;52.032;5.152;2023-06-19T03:09:46;7;7;
79537;PMS5003;68989;52.032;5.152;2023-06-19T03:12:13;6;6;
79537;PMS5003;68989;52.032;5.152;2023-06-19T03:14:39;9;9;
79537;PMS5003;68989;52.032;5.152;2023-06-19T03:17:06;7;6;
79537;PMS5003;68989;52.032;5.152;2023-06-19T03:19:33;6;6;
79537;PMS5003;68989;52.032;5.152;2023-06-19T03:22:00;9;9;
79537;PMS5003;68989;52.032;5.152;2023-06-19T03:24:26;10;10;
79537;PMS5003;68989;52.032;5.152;2023-06-19T03:26:53;9;8;
79537;PMS5003;68989;52.032;5.152;2023-06-19T03:29:20;8;8;
79537;PMS5003;68989;52.032;5.152;2023-06-19T03:31:47;10;10;
79537;PMS5003;68989;52.032;5.152;2023-06-19T03:34:13;8;8;
79537;PMS5003;68989;52.032;5.152;2023-06-19T03:36:40;11;11;
79537;PMS5003;68989;52.032;5.152;2023-06-19T03:39:07;12;12;
79537;PMS5003;68989;52.032;5.152;2023-06-19T03:41:34;10;10;
79537;PMS5003;68989;52.032;5.152;2023-06-19T03:44:01;10;10;
79537;PMS5003;68989;52.032;5.152;2023-06-19T03:46:28;11;11;
79537;PMS5003;68989;52.032;5.152;2023-06-19T03:48:55;12;11;
79537;PMS5003;68989;52.032;5.152;2023-06-19T03:51:22;15;15;
79537;PMS5003;68989;52.032;5.152;2023-06-19T03:53:49;10;10;
79537;PMS5003;68989;52.032;5.152;2023-06-19T03:56:16;12;11;
79537;PMS5003;68989;52.032;5.152;2023-06-19T03:58:43;14;14;
79537;PMS5003;68989;52.032;5.152;2023-06-19T04:01:10;15;14;
79537;PMS5003;68989;52.032;5.152;2023-06-19T04:03:37;12;12;
79537;PMS5003;68989;52.032;5.152;2023-06-19T04:06:04;19;18;
79537;PMS5003;68989;52.032;5.152;2023-06-19T04:08:32;13;13;
79537;PMS5003;68989;52.032;5.152;2023-06-19T04:10:59;12;12;
79537;PMS5003;68989;52.032;5.152;2023-06-19T04:13:26;15;14;
79537;PMS5003;68989;52.032;5.152;2023-06-19T04:15:54;14;14;
79537;PMS5003;68989;52.032;5.152;2023-06-19T04:18:21;14;13;
79537;PMS5003;68989;52.032;5.152;2023-06-19T04:20:49;18;17;
79537;PMS5003;68989;52.032;5.152;2023-06-19T04:23:16;16;16;
79537;PMS5003;68989;52.032;5.152;2023-06-19T04:25:43;15;15;
79537;PMS5003;68989;52.032;5.152;2023-06-19T04:28:10;11;11;
79537;PMS5003;68989;52.032;5.152;2023-06-19T04:30:37;11;11;
79537;PMS5003;68989;52.032;5.152;2023-06-19T04:33:04;15;10;
79537;PMS5003;68989;52.032;5.152;2023-06-19T04:35:31;7;7;
79537;PMS5003;68989;52.032;5.152;2023-06-19T04:37:58;11;9;
79537;PMS5003;68989;52.032;5.152;2023-06-19T04:40:25;8;8;
79537;PMS5003;68989;52.032;5.152;2023-06-19T04:42:52;4;4;
79537;PMS5003;68989;52.032;5.152;2023-06-19T04:45:19;9;9;
79537;PMS5003;68989;52.032;5.152;2023-06-19T04:47:47;5;5;
79537;PMS5003;68989;52.032;5.152;2023-06-19T04:50:13;5;5;
79537;PMS5003;68989;52.032;5.152;2023-06-19T04:52:40;5;5;
79537;PMS5003;68989;52.032;5.152;2023-06-19T04:55:07;7;7;
79537;PMS5003;68989;52.032;5.152;2023-06-19T04:57:35;5;5;
79537;PMS5003;68989;52.032;5.152;2023-06-19T05:00:03;6;4;
79537;PMS5003;68989;52.032;5.152;2023-06-19T05:02:31;6;6;
79537;PMS5003;68989;52.032;5.152;2023-06-19T05:04:57;7;7;
79537;PMS5003;68989;52.032;5.152;2023-06-19T05:07:25;7;7;
79537;PMS5003;68989;52.032;5.152;2023-06-19T05:09:52;5;5;
79537;PMS5003;68989;52.032;5.152;2023-06-19T05:12:18;5;5;
79537;PMS5003;68989;52.032;5.152;2023-06-19T05:14:45;7;6;
79537;PMS5003;68989;52.032;5.152;2023-06-19T05:17:12;5;5;
79537;PMS5003;68989;52.032;5.152;2023-06-19T05:19:39;6;6;
79537;PMS5003;68989;52.032;5.152;2023-06-19T05:22:05;6;5;
79537;PMS5003;68989;52.032;5.152;2023-06-19T05:24:32;5;5;
79537;PMS5003;68989;52.032;5.152;2023-06-19T05:26:59;6;6;
79537;PMS5003;68989;52.032;5.152;2023-06-19T05:29:26;8;8;
79537;PMS5003;68989;52.032;5.152;2023-06-19T05:31:53;7;7;
79537;PMS5003;68989;52.032;5.152;2023-06-19T05:34:20;9;9;
79537;PMS5003;68989;52.032;5.152;2023-06-19T05:36:47;10;9;
79537;PMS5003;68989;52.032;5.152;2023-06-19T05:39:13;9;9;
79537;PMS5003;68989;52.032;5.152;2023-06-19T05:41:40;9;9;
79537;PMS5003;68989;52.032;5.152;2023-06-19T05:44:07;10;10;
79537;PMS5003;68989;52.032;5.152;2023-06-19T05:46:34;11;9;
79537;PMS5003;68989;52.032;5.152;2023-06-19T05:49:00;8;8;
79537;PMS5003;68989;52.032;5.152;2023-06-19T05:51:27;10;10;
79537;PMS5003;68989;52.032;5.152;2023-06-19T05:53:54;8;8;
79537;PMS5003;68989;52.032;5.152;2023-06-19T05:56:21;9;9;
79537;PMS5003;68989;52.032;5.152;2023-06-19T05:58:48;11;11;
79537;PMS5003;68989;52.032;5.152;2023-06-19T06:01:15;9;9;
79537;PMS5003;68989;52.032;5.152;2023-06-19T06:03:43;11;11;
79537;PMS5003;68989;52.032;5.152;2023-06-19T06:06:09;11;11;
79537;PMS5003;68989;52.032;5.152;2023-06-19T06:08:37;10;10;
79537;PMS5003;68989;52.032;5.152;2023-06-19T06:11:04;9;9;
79537;PMS5003;68989;52.032;5.152;2023-06-19T06:13:30;13;11;
79537;PMS5003;68989;52.032;5.152;2023-06-19T06:15:57;10;10;
79537;PMS5003;68989;52.032;5.152;2023-06-19T06:18:24;10;10;
79537;PMS5003;68989;52.032;5.152;2023-06-19T06:20:51;11;11;
79537;PMS5003;68989;52.032;5.152;2023-06-19T06:23:18;10;8;
79537;PMS5003;68989;52.032;5.152;2023-06-19T06:25:45;14;11;
79537;PMS5003;68989;52.032;5.152;2023-06-19T06:28:12;10;10;
79537;PMS5003;68989;52.032;5.152;2023-06-19T06:30:39;14;13;
79537;PMS5003;68989;52.032;5.152;2023-06-19T06:33:05;13;13;
79537;PMS5003;68989;52.032;5.152;2023-06-19T06:35:32;11;11;
79537;PMS5003;68989;52.032;5.152;2023-06-19T06:37:59;14;13;
79537;PMS5003;68989;52.032;5.152;2023-06-19T06:40:27;13;13;
79537;PMS5003;68989;52.032;5.152;2023-06-19T06:42:53;13;13;
79537;PMS5003;68989;52.032;5.152;2023-06-19T06:45:20;15;14;
79537;PMS5003;68989;52.032;5.152;2023-06-19T06:47:47;16;14;
79537;PMS5003;68989;52.032;5.152;2023-06-19T06:50:14;15;14;
79537;PMS5003;68989;52.032;5.152;2023-06-19T06:52:42;14;14;
79537;PMS5003;68989;52.032;5.152;2023-06-19T06:55:08;17;15;
79537;PMS5003;68989;52.032;5.152;2023-06-19T06:57:35;19;18;
79537;PMS5003;68989;52.032;5.152;2023-06-19T07:00:03;16;15;
79537;PMS5003;68989;52.032;5.152;2023-06-19T07:02:31;16;16;
79537;PMS5003;68989;52.032;5.152;2023-06-19T07:04:59;19;19;
79537;PMS5003;68989;52.032;5.152;2023-06-19T07:07:26;19;17;
79537;PMS5003;68989;52.032;5.152;2023-06-19T07:09:52;21;19;
79537;PMS5003;68989;52.032;5.152;2023-06-19T07:12:20;15;14;
79537;PMS5003;68989;52.032;5.152;2023-06-19T07:14:46;18;17;
79537;PMS5003;68989;52.032;5.152;2023-06-19T07:17:13;16;16;
79537;PMS5003;68989;52.032;5.152;2023-06-19T07:19:40;20;16;
79537;PMS5003;68989;52.032;5.152;2023-06-19T07:22:07;14;14;
79537;PMS5003;68989;52.032;5.152;2023-06-19T07:24:35;18;18;
79537;PMS5003;68989;52.032;5.152;2023-06-19T07:27:01;24;24;
79537;PMS5003;68989;52.032;5.152;2023-06-19T07:29:28;24;23;
79537;PMS5003;68989;52.032;5.152;2023-06-19T07:31:56;23;22;
79537;PMS5003;68989;52.032;5.152;2023-06-19T07:34:23;26;24;
79537;PMS5003;68989;52.032;5.152;2023-06-19T07:36:50;27;27;
79537;PMS5003;68989;52.032;5.152;2023-06-19T07:39:18;19;18;
79537;PMS5003;68989;52.032;5.152;2023-06-19T07:41:45;22;21;
79537;PMS5003;68989;52.032;5.152;2023-06-19T07:44:11;19;19;
79537;PMS5003;68989;52.032;5.152;2023-06-19T07:46:39;20;17;
79537;PMS5003;68989;52.032;5.152;2023-06-19T07:49:06;22;21;
79537;PMS5003;68989;52.032;5.152;2023-06-19T07:51:33;20;19;
79537;PMS5003;68989;52.032;5.152;2023-06-19T07:54:00;23;22;
79537;PMS5003;68989;52.032;5.152;2023-06-19T07:56:27;22;21;
79537;PMS5003;68989;52.032;5.152;2023-06-19T07:58:54;21;18;
79537;PMS5003;68989;52.032;5.152;2023-06-19T08:01:21;24;24;
79537;PMS5003;68989;52.032;5.152;2023-06-19T08:03:48;21;21;
79537;PMS5003;68989;52.032;5.152;2023-06-19T08:06:15;23;20;
79537;PMS5003;68989;52.032;5.152;2023-06-19T08:08:43;19;19;
79537;PMS5003;68989;52.032;5.152;2023-06-19T08:11:10;23;21;
79537;PMS5003;68989;52.032;5.152;2023-06-19T08:13:37;21;19;
79537;PMS5003;68989;52.032;5.152;2023-06-19T08:16:04;23;20;
79537;PMS5003;68989;52.032;5.152;2023-06-19T08:18:31;23;21;
79537;PMS5003;68989;52.032;5.152;2023-06-19T08:20:58;21;21;
79537;PMS5003;68989;52.032;5.152;2023-06-19T08:23:26;20;20;
79537;PMS5003;68989;52.032;5.152;2023-06-19T08:25:53;25;22;
79537;PMS5003;68989;52.032;5.152;2023-06-19T08:28:20;18;17;
79537;PMS5003;68989;52.032;5.152;2023-06-19T08:30:47;22;22;
79537;PMS5003;68989;52.032;5.152;2023-06-19T08:33:14;21;18;
79537;PMS5003;68989;52.032;5.152;2023-06-19T08:35:41;23;22;
79537;PMS5003;68989;52.032;5.152;2023-06-19T08:38:09;26;21;
79537;PMS5003;68989;52.032;5.152;2023-06-19T08:40:36;29;25;
79537;PMS5003;68989;52.032;5.152;2023-06-19T08:43:04;22;22;
79537;PMS5003;68989;52.032;5.152;2023-06-19T08:45:31;21;21;
79537;PMS5003;68989;52.032;5.152;2023-06-19T08:47:58;23;21;
79537;PMS5003;68989;52.032;5.152;2023-06-19T08:50:26;22;22;
79537;PMS5003;68989;52.032;5.152;2023-06-19T08:52:54;24;22;
79537;PMS5003;68989;52.032;5.152;2023-06-19T08:55:21;25;25;
79537;PMS5003;68989;52.032;5.152;2023-06-19T08:57:48;25;24;
79537;PMS5003;68989;52.032;5.152;2023-06-19T09:00:22;29;25;
79537;PMS5003;68989;52.032;5.152;2023-06-19T09:02:50;23;23;
79537;PMS5003;68989;52.032;5.152;2023-06-19T09:05:17;25;23;
79537;PMS5003;68989;52.032;5.152;2023-06-19T09:07:53;20;18;
79537;PMS5003;68989;52.032;5.152;2023-06-19T09:10:22;20;20;
79537;PMS5003;68989;52.032;5.152;2023-06-19T09:12:57;24;24;
79537;PMS5003;68989;52.032;5.152;2023-06-19T09:15:27;19;18;
79537;PMS5003;68989;52.032;5.152;2023-06-19T09:18:03;22;22;
79537;PMS5003;68989;52.032;5.152;2023-06-19T09:20:32;20;20;
79537;PMS5003;68989;52.032;5.152;2023-06-19T09:23:00;20;17;
79537;PMS5003;68989;52.032;5.152;2023-06-19T09:25:27;20;20;
79537;PMS5003;68989;52.032;5.152;2023-06-19T09:27:54;21;20;
79537;PMS5003;68989;52.032;5.152;2023-06-19T09:30:22;20;19;
79537;PMS5003;68989;52.032;5.152;2023-06-19T09:32:50;27;23;
79537;PMS5003;68989;52.032;5.152;2023-06-19T09:35:17;20;17;
79537;PMS5003;68989;52.032;5.152;2023-06-19T09:37:44;25;23;
79537;PMS5003;68989;52.032;5.152;2023-06-19T09:40:12;20;20;
79537;PMS5003;68989;52.032;5.152;2023-06-19T09:42:39;21;21;
79537;PMS5003;68989;52.032;5.152;2023-06-19T09:45:08;22;22;
79537;PMS5003;68989;52.032;5.152;2023-06-19T09:47:37;23;21;
79537;PMS5003;68989;52.032;5.152;2023-06-19T09:50:09;27;25;
79537;PMS5003;68989;52.032;5.152;2023-06-19T09:52:38;19;19;
79537;PMS5003;68989;52.032;5.152;2023-06-19T09:55:07;22;22;
79537;PMS5003;68989;52.032;5.152;2023-06-19T09:57:36;21;21;
79537;PMS5003;68989;52.032;5.152;2023-06-19T10:00:05;21;21;
79537;PMS5003;68989;52.032;5.152;2023-06-19T10:02:33;27;25;
79537;PMS5003;68989;52.032;5.152;2023-06-19T10:05:01;21;20;
79537;PMS5003;68989;52.032;5.152;2023-06-19T10:07:32;24;22;
79537;PMS5003;68989;52.032;5.152;2023-06-19T10:10:00;22;20;
79537;PMS5003;68989;52.032;5.152;2023-06-19T10:12:37;21;21;
79537;PMS5003;68989;52.032;5.152;2023-06-19T10:15:08;25;25;
79537;PMS5003;68989;52.032;5.152;2023-06-19T10:17:36;24;21;
79537;PMS5003;68989;52.032;5.152;2023-06-19T10:20:05;17;17;
79537;PMS5003;68989;52.032;5.152;2023-06-19T10:22:33;18;17;
79537;PMS5003;68989;52.032;5.152;2023-06-19T10:25:00;19;18;
79537;PMS5003;68989;52.032;5.152;2023-06-19T10:27:26;19;18;
79537;PMS5003;68989;52.032;5.152;2023-06-19T10:29:54;20;16;
79537;PMS5003;68989;52.032;5.152;2023-06-19T10:32:22;18;18;
79537;PMS5003;68989;52.032;5.152;2023-06-19T10:34:49;20;20;
79537;PMS5003;68989;52.032;5.152;2023-06-19T10:37:16;24;23;
79537;PMS5003;68989;52.032;5.152;2023-06-19T10:39:43;12;12;
79537;PMS5003;68989;52.032;5.152;2023-06-19T10:42:10;17;17;
79537;PMS5003;68989;52.032;5.152;2023-06-19T10:44:38;19;18;
79537;PMS5003;68989;52.032;5.152;2023-06-19T10:47:05;16;16;
79537;PMS5003;68989;52.032;5.152;2023-06-19T10:49:32;23;20;
79537;PMS5003;68989;52.032;5.152;2023-06-19T10:52:00;21;21;
79537;PMS5003;68989;52.032;5.152;2023-06-19T10:54:28;22;22;
79537;PMS5003;68989;52.032;5.152;2023-06-19T10:56:55;18;18;
79537;PMS5003;68989;52.032;5.152;2023-06-19T10:59:22;20;19;
79537;PMS5003;68989;52.032;5.152;2023-06-19T11:01:49;24;22;
79537;PMS5003;68989;52.032;5.152;2023-06-19T11:04:16;22;21;
79537;PMS5003;68989;52.032;5.152;2023-06-19T11:06:44;25;25;
79537;PMS5003;68989;52.032;5.152;2023-06-19T11:09:12;22;20;
79537;PMS5003;68989;52.032;5.152;2023-06-19T11:11:40;19;19;
79537;PMS5003;68989;52.032;5.152;2023-06-19T11:14:09;26;25;
79537;PMS5003;68989;52.032;5.152;2023-06-19T11:16:37;26;24;
79537;PMS5003;68989;52.032;5.152;2023-06-19T11:19:06;24;24;
79537;PMS5003;68989;52.032;5.152;2023-06-19T11:21:35;26;22;
79537;PMS5003;68989;52.032;5.152;2023-06-19T11:24:04;22;22;
79537;PMS5003;68989;52.032;5.152;2023-06-19T11:26:34;20;20;
79537;PMS5003;68989;52.032;5.152;2023-06-19T11:29:13;20;19;
79537;PMS5003;68989;52.032;5.152;2023-06-19T11:31:41;22;20;
79537;PMS5003;68989;52.032;5.152;2023-06-19T11:34:09;22;20;
79537;PMS5003;68989;52.032;5.152;2023-06-19T11:36:36;21;21;
79537;PMS5003;68989;52.032;5.152;2023-06-19T11:39:04;22;21;
79537;PMS5003;68989;52.032;5.152;2023-06-19T11:41:35;20;19;
79537;PMS5003;68989;52.032;5.152;2023-06-19T11:44:03;22;21;
79537;PMS5003;68989;52.032;5.152;2023-06-19T11:46:31;18;18;
79537;PMS5003;68989;52.032;5.152;2023-06-19T11:49:07;17;17;
79537;PMS5003;68989;52.032;5.152;2023-06-19T11:51:35;18;18;
79537;PMS5003;68989;52.032;5.152;2023-06-19T11:54:04;21;20;
79537;PMS5003;68989;52.032;5.152;2023-06-19T11:56:32;18;18;
79537;PMS5003;68989;52.032;5.152;2023-06-19T11:58:59;19;19;
79537;PMS5003;68989;52.032;5.152;2023-06-19T12:01:26;21;21;
79537;PMS5003;68989;52.032;5.152;2023-06-19T12:03:53;21;20;
79537;PMS5003;68989;52.032;5.152;2023-06-19T12:06:20;21;21;
79537;PMS5003;68989;52.032;5.152;2023-06-19T12:08:47;21;20;
79537;PMS5003;68989;52.032;5.152;2023-06-19T12:11:15;19;18;
79537;PMS5003;68989;52.032;5.152;2023-06-19T12:13:42;20;20;
79537;PMS5003;68989;52.032;5.152;2023-06-19T12:16:09;22;20;
79537;PMS5003;68989;52.032;5.152;2023-06-19T12:18:38;20;20;
79537;PMS5003;68989;52.032;5.152;2023-06-19T12:21:05;18;17;
79537;PMS5003;68989;52.032;5.152;2023-06-19T12:23:32;24;21;
79537;PMS5003;68989;52.032;5.152;2023-06-19T12:25:59;21;21;
79537;PMS5003;68989;52.032;5.152;2023-06-19T12:28:26;24;20;
79537;PMS5003;68989;52.032;5.152;2023-06-19T12:30:53;19;19;
79537;PMS5003;68989;52.032;5.152;2023-06-19T12:33:21;18;18;
79537;PMS5003;68989;52.032;5.152;2023-06-19T12:35:48;18;17;
79537;PMS5003;68989;52.032;5.152;2023-06-19T12:38:15;16;16;
79537;PMS5003;68989;52.032;5.152;2023-06-19T12:40:42;18;16;
79537;PMS5003;68989;52.032;5.152;2023-06-19T12:43:09;17;17;
79537;PMS5003;68989;52.032;5.152;2023-06-19T12:45:36;15;15;
79537;PMS5003;68989;52.032;5.152;2023-06-19T12:48:03;17;15;
79537;PMS5003;68989;52.032;5.152;2023-06-19T12:50:31;16;16;
79537;PMS5003;68989;52.032;5.152;2023-06-19T12:52:57;17;17;
79537;PMS5003;68989;52.032;5.152;2023-06-19T12:55:24;17;17;
79537;PMS5003;68989;52.032;5.152;2023-06-19T12:57:51;14;13;
79537;PMS5003;68989;52.032;5.152;2023-06-19T13:00:18;17;16;
79537;PMS5003;68989;52.032;5.152;2023-06-19T13:02:46;17;16;
79537;PMS5003;68989;52.032;5.152;2023-06-19T13:05:12;15;15;
79537;PMS5003;68989;52.032;5.152;2023-06-19T13:07:39;13;12;
79537;PMS5003;68989;52.032;5.152;2023-06-19T13:10:06;13;13;
79537;PMS5003;68989;52.032;5.152;2023-06-19T13:12:34;15;15;
79537;PMS5003;68989;52.032;5.152;2023-06-19T13:15:00;13;13;
79537;PMS5003;68989;52.032;5.152;2023-06-19T13:17:28;15;15;
79537;PMS5003;68989;52.032;5.152;2023-06-19T13:19:55;11;11;
79537;PMS5003;68989;52.032;5.152;2023-06-19T13:22:22;14;13;
79537;PMS5003;68989;52.032;5.152;2023-06-19T13:24:48;14;14;
79537;PMS5003;68989;52.032;5.152;2023-06-19T13:27:15;10;10;
79537;PMS5003;68989;52.032;5.152;2023-06-19T13:29:42;11;11;
79537;PMS5003;68989;52.032;5.152;2023-06-19T13:32:10;12;12;
79537;PMS5003;68989;52.032;5.152;2023-06-19T13:34:37;15;15;
79537;PMS5003;68989;52.032;5.152;2023-06-19T13:37:04;12;12;
79537;PMS5003;68989;52.032;5.152;2023-06-19T13:39:31;15;13;
79537;PMS5003;68989;52.032;5.152;2023-06-19T13:41:58;12;12;
79537;PMS5003;68989;52.032;5.152;2023-06-19T13:44:25;12;11;
79537;PMS5003;68989;52.032;5.152;2023-06-19T13:46:53;11;11;
79537;PMS5003;68989;52.032;5.152;2023-06-19T13:49:19;10;10;
79537;PMS5003;68989;52.032;5.152;2023-06-19T13:51:47;14;14;
79537;PMS5003;68989;52.032;5.152;2023-06-19T13:54:14;10;10;
79537;PMS5003;68989;52.032;5.152;2023-06-19T13:56:42;15;15;
79537;PMS5003;68989;52.032;5.152;2023-06-19T13:59:08;10;10;
79537;PMS5003;68989;52.032;5.152;2023-06-19T14:01:35;15;13;
79537;PMS5003;68989;52.032;5.152;2023-06-19T14:04:03;13;11;
79537;PMS5003;68989;52.032;5.152;2023-06-19T14:06:30;10;10;
79537;PMS5003;68989;52.032;5.152;2023-06-19T14:08:57;15;12;
79537;PMS5003;68989;52.032;5.152;2023-06-19T14:11:25;13;13;
79537;PMS5003;68989;52.032;5.152;2023-06-19T14:13:52;13;13;
79537;PMS5003;68989;52.032;5.152;2023-06-19T14:16:19;12;11;
79537;PMS5003;68989;52.032;5.152;2023-06-19T14:18:46;12;12;
79537;PMS5003;68989;52.032;5.152;2023-06-19T14:21:13;12;12;
79537;PMS5003;68989;52.032;5.152;2023-06-19T14:23:39;16;13;
79537;PMS5003;68989;52.032;5.152;2023-06-19T14:26:06;15;13;
79537;PMS5003;68989;52.032;5.152;2023-06-19T14:28:33;15;13;
79537;PMS5003;68989;52.032;5.152;2023-06-19T14:31:00;11;11;
79537;PMS5003;68989;52.032;5.152;2023-06-19T14:33:27;11;11;
79537;PMS5003;68989;52.032;5.152;2023-06-19T14:35:54;16;12;
79537;PMS5003;68989;52.032;5.152;2023-06-19T14:38:21;16;16;
79537;PMS5003;68989;52.032;5.152;2023-06-19T14:40:48;12;12;
79537;PMS5003;68989;52.032;5.152;2023-06-19T14:43:15;13;13;
79537;PMS5003;68989;52.032;5.152;2023-06-19T14:45:46;15;14;
79537;PMS5003;68989;52.032;5.152;2023-06-19T14:48:13;12;12;
79537;PMS5003;68989;52.032;5.152;2023-06-19T14:50:41;14;13;
79537;PMS5003;68989;52.032;5.152;2023-06-19T14:53:08;12;12;
79537;PMS5003;68989;52.032;5.152;2023-06-19T14:55:35;14;14;
79537;PMS5003;68989;52.032;5.152;2023-06-19T14:58:04;11;11;
79537;PMS5003;68989;52.032;5.152;2023-06-19T15:00:32;13;11;
79537;PMS5003;68989;52.032;5.152;2023-06-19T15:02:59;10;10;
79537;PMS5003;68989;52.032;5.152;2023-06-19T15:05:28;13;11;
79537;PMS5003;68989;52.032;5.152;2023-06-19T15:07:55;11;11;
79537;PMS5003;68989;52.032;5.152;2023-06-19T15:10:22;11;11;
79537;PMS5003;68989;52.032;5.152;2023-06-19T15:12:50;11;11;
79537;PMS5003;68989;52.032;5.152;2023-06-19T15:15:22;13;13;
79537;PMS5003;68989;52.032;5.152;2023-06-19T15:17:49;12;11;
79537;PMS5003;68989;52.032;5.152;2023-06-19T15:20:15;14;13;
79537;PMS5003;68989;52.032;5.152;2023-06-19T15:22:43;12;12;
79537;PMS5003;68989;52.032;5.152;2023-06-19T15:25:10;10;10;
79537;PMS5003;68989;52.032;5.152;2023-06-19T15:27:37;11;11;
79537;PMS5003;68989;52.032;5.152;2023-06-19T15:30:04;12;12;
79537;PMS5003;68989;52.032;5.152;2023-06-19T15:32:32;13;13;
79537;PMS5003;68989;52.032;5.152;2023-06-19T15:34:59;10;10;
79537;PMS5003;68989;52.032;5.152;2023-06-19T15:37:26;12;11;
79537;PMS5003;68989;52.032;5.152;2023-06-19T15:39:53;11;11;
79537;PMS5003;68989;52.032;5.152;2023-06-19T15:42:20;12;12;
79537;PMS5003;68989;52.032;5.152;2023-06-19T15:44:47;11;11;
79537;PMS5003;68989;52.032;5.152;2023-06-19T15:47:13;12;12;
79537;PMS5003;68989;52.032;5.152;2023-06-19T15:49:40;8;7;
79537;PMS5003;68989;52.032;5.152;2023-06-19T15:52:08;11;10;
79537;PMS5003;68989;52.032;5.152;2023-06-19T15:54:35;9;9;
79537;PMS5003;68989;52.032;5.152;2023-06-19T15:57:02;9;8;
79537;PMS5003;68989;52.032;5.152;2023-06-19T15:59:30;8;8;
79537;PMS5003;68989;52.032;5.152;2023-06-19T16:01:57;11;11;
79537;PMS5003;68989;52.032;5.152;2023-06-19T16:04:24;13;13;
79537;PMS5003;68989;52.032;5.152;2023-06-19T16:06:51;12;9;
79537;PMS5003;68989;52.032;5.152;2023-06-19T16:09:18;12;12;
79537;PMS5003;68989;52.032;5.152;2023-06-19T16:11:45;11;11;
79537;PMS5003;68989;52.032;5.152;2023-06-19T16:14:12;10;10;
79537;PMS5003;68989;52.032;5.152;2023-06-19T16:16:39;10;10;
79537;PMS5003;68989;52.032;5.152;2023-06-19T16:19:06;12;11;
79537;PMS5003;68989;52.032;5.152;2023-06-19T16:21:32;11;11;
79537;PMS5003;68989;52.032;5.152;2023-06-19T16:23:59;10;10;
79537;PMS5003;68989;52.032;5.152;2023-06-19T16:26:26;13;12;
79537;PMS5003;68989;52.032;5.152;2023-06-19T16:28:52;10;10;